sensor_id;sensor_type;location;lat;lon;timestamp;P1;durP1;ratioP1;P2;durP2;ratioP2
22415;SDS011;12204;50.600;4.608;2022-08-19T00:04:53;6.13;;;4.05;;
22415;SDS011;12204;50.600;4.608;2022-08-19T00:09:58;4.93;;;3.60;;
22415;SDS011;12204;50.600;4.608;2022-08-19T00:15:02;5.22;;;3.90;;
22415;SDS011;12204;50.600;4.608;2022-08-19T00:20:13;5.65;;;4.07;;
22415;SDS011;12204;50.600;4.608;2022-08-19T00:25:22;5.38;;;3.90;;
22415;SDS011;12204;50.600;4.608;2022-08-19T00:30:31;5.20;;;3.58;;
22415;SDS011;12204;50.600;4.608;2022-08-19T00:35:35;5.88;;;4.00;;
22415;SDS011;12204;50.600;4.608;2022-08-19T00:40:43;6.05;;;3.90;;
22415;SDS011;12204;50.600;4.608;2022-08-19T00:45:48;5.75;;;3.90;;
22415;SDS011;12204;50.600;4.608;2022-08-19T00:50:53;5.47;;;3.97;;
22415;SDS011;12204;50.600;4.608;2022-08-19T00:55:59;5.15;;;3.85;;
22415;SDS011;12204;50.600;4.608;2022-08-19T01:01:07;5.40;;;3.53;;
22415;SDS011;12204;50.600;4.608;2022-08-19T01:06:12;5.05;;;3.60;;
22415;SDS011;12204;50.600;4.608;2022-08-19T01:11:22;5.82;;;3.72;;
22415;SDS011;12204;50.600;4.608;2022-08-19T01:16:27;5.70;;;3.80;;
22415;SDS011;12204;50.600;4.608;2022-08-19T01:21:34;5.50;;;3.50;;
22415;SDS011;12204;50.600;4.608;2022-08-19T01:26:46;5.90;;;3.75;;
22415;SDS011;12204;50.600;4.608;2022-08-19T01:31:50;6.27;;;4.10;;
22415;SDS011;12204;50.600;4.608;2022-08-19T01:36:54;5.45;;;3.83;;
22415;SDS011;12204;50.600;4.608;2022-08-19T01:42:00;6.30;;;3.90;;
22415;SDS011;12204;50.600;4.608;2022-08-19T01:47:04;6.78;;;4.00;;
22415;SDS011;12204;50.600;4.608;2022-08-19T01:52:09;5.30;;;3.88;;
22415;SDS011;12204;50.600;4.608;2022-08-19T01:57:14;6.40;;;3.90;;
22415;SDS011;12204;50.600;4.608;2022-08-19T02:02:18;5.10;;;3.50;;
22415;SDS011;12204;50.600;4.608;2022-08-19T02:07:22;6.70;;;3.70;;
22415;SDS011;12204;50.600;4.608;2022-08-19T02:12:27;5.38;;;3.72;;
22415;SDS011;12204;50.600;4.608;2022-08-19T02:17:31;5.38;;;3.47;;
22415;SDS011;12204;50.600;4.608;2022-08-19T02:22:36;5.53;;;3.65;;
22415;SDS011;12204;50.600;4.608;2022-08-19T02:27:44;5.57;;;3.67;;
22415;SDS011;12204;50.600;4.608;2022-08-19T02:32:50;5.22;;;3.40;;
22415;SDS011;12204;50.600;4.608;2022-08-19T02:37:54;5.90;;;3.63;;
22415;SDS011;12204;50.600;4.608;2022-08-19T02:43:17;5.50;;;3.63;;
22415;SDS011;12204;50.600;4.608;2022-08-19T02:48:23;5.82;;;3.65;;
22415;SDS011;12204;50.600;4.608;2022-08-19T02:53:28;6.45;;;3.95;;
22415;SDS011;12204;50.600;4.608;2022-08-19T02:58:34;5.97;;;3.80;;
22415;SDS011;12204;50.600;4.608;2022-08-19T03:03:38;5.83;;;3.67;;
22415;SDS011;12204;50.600;4.608;2022-08-19T03:08:43;4.88;;;3.22;;
22415;SDS011;12204;50.600;4.608;2022-08-19T03:13:51;5.70;;;3.63;;
22415;SDS011;12204;50.600;4.608;2022-08-19T03:18:56;5.60;;;3.72;;
22415;SDS011;12204;50.600;4.608;2022-08-19T03:24:02;5.63;;;3.60;;
22415;SDS011;12204;50.600;4.608;2022-08-19T03:29:11;6.35;;;3.65;;
22415;SDS011;12204;50.600;4.608;2022-08-19T03:34:26;5.45;;;3.78;;
22415;SDS011;12204;50.600;4.608;2022-08-19T03:39:33;5.20;;;3.47;;
22415;SDS011;12204;50.600;4.608;2022-08-19T03:44:41;5.45;;;3.65;;
22415;SDS011;12204;50.600;4.608;2022-08-19T03:49:46;5.73;;;3.30;;
22415;SDS011;12204;50.600;4.608;2022-08-19T03:54:50;5.50;;;3.40;;
22415;SDS011;12204;50.600;4.608;2022-08-19T03:59:55;6.45;;;3.50;;
22415;SDS011;12204;50.600;4.608;2022-08-19T04:05:05;5.38;;;3.38;;
22415;SDS011;12204;50.600;4.608;2022-08-19T04:10:10;5.03;;;3.47;;
22415;SDS011;12204;50.600;4.608;2022-08-19T04:15:16;5.07;;;3.33;;
22415;SDS011;12204;50.600;4.608;2022-08-19T04:20:20;5.68;;;3.53;;
22415;SDS011;12204;50.600;4.608;2022-08-19T04:25:24;6.57;;;3.40;;
22415;SDS011;12204;50.600;4.608;2022-08-19T04:30:29;5.00;;;3.47;;
22415;SDS011;12204;50.600;4.608;2022-08-19T04:35:34;5.10;;;3.22;;
22415;SDS011;12204;50.600;4.608;2022-08-19T04:40:41;6.47;;;3.67;;
22415;SDS011;12204;50.600;4.608;2022-08-19T04:46:07;5.05;;;3.40;;
22415;SDS011;12204;50.600;4.608;2022-08-19T04:51:34;5.63;;;3.50;;
22415;SDS011;12204;50.600;4.608;2022-08-19T04:56:38;5.20;;;3.50;;
22415;SDS011;12204;50.600;4.608;2022-08-19T05:01:44;4.85;;;3.30;;
22415;SDS011;12204;50.600;4.608;2022-08-19T05:06:51;6.95;;;3.40;;
22415;SDS011;12204;50.600;4.608;2022-08-19T05:12:01;6.25;;;3.70;;
22415;SDS011;12204;50.600;4.608;2022-08-19T05:17:08;5.95;;;3.50;;
22415;SDS011;12204;50.600;4.608;2022-08-19T05:22:28;5.75;;;3.40;;
22415;SDS011;12204;50.600;4.608;2022-08-19T05:27:36;6.15;;;3.53;;
22415;SDS011;12204;50.600;4.608;2022-08-19T05:32:42;5.32;;;3.63;;
22415;SDS011;12204;50.600;4.608;2022-08-19T05:37:46;6.50;;;3.70;;
22415;SDS011;12204;50.600;4.608;2022-08-19T05:42:55;4.55;;;3.08;;
22415;SDS011;12204;50.600;4.608;2022-08-19T05:48:00;5.85;;;3.60;;
22415;SDS011;12204;50.600;4.608;2022-08-19T05:53:04;5.38;;;3.40;;
22415;SDS011;12204;50.600;4.608;2022-08-19T05:58:08;5.28;;;3.30;;
22415;SDS011;12204;50.600;4.608;2022-08-19T06:03:13;5.68;;;3.50;;
22415;SDS011;12204;50.600;4.608;2022-08-19T06:08:17;5.40;;;3.33;;
22415;SDS011;12204;50.600;4.608;2022-08-19T06:13:35;5.57;;;3.65;;
22415;SDS011;12204;50.600;4.608;2022-08-19T06:18:40;7.10;;;3.60;;
22415;SDS011;12204;50.600;4.608;2022-08-19T06:28:49;5.55;;;3.63;;
22415;SDS011;12204;50.600;4.608;2022-08-19T06:33:55;6.40;;;3.78;;
22415;SDS011;12204;50.600;4.608;2022-08-19T06:39:00;7.53;;;4.10;;
22415;SDS011;12204;50.600;4.608;2022-08-19T06:44:08;6.13;;;3.90;;
22415;SDS011;12204;50.600;4.608;2022-08-19T06:49:15;6.65;;;4.30;;
22415;SDS011;12204;50.600;4.608;2022-08-19T06:54:20;6.35;;;3.97;;
22415;SDS011;12204;50.600;4.608;2022-08-19T06:59:31;6.75;;;4.00;;
22415;SDS011;12204;50.600;4.608;2022-08-19T07:04:37;6.03;;;4.00;;
22415;SDS011;12204;50.600;4.608;2022-08-19T07:15:01;5.78;;;3.47;;
22415;SDS011;12204;50.600;4.608;2022-08-19T07:20:08;7.10;;;3.85;;
22415;SDS011;12204;50.600;4.608;2022-08-19T07:25:14;6.47;;;3.42;;
22415;SDS011;12204;50.600;4.608;2022-08-19T07:30:19;5.90;;;3.65;;
22415;SDS011;12204;50.600;4.608;2022-08-19T07:35:28;7.90;;;3.47;;
22415;SDS011;12204;50.600;4.608;2022-08-19T07:40:33;5.95;;;3.22;;
22415;SDS011;12204;50.600;4.608;2022-08-19T07:45:37;6.25;;;3.40;;
22415;SDS011;12204;50.600;4.608;2022-08-19T07:50:42;6.40;;;3.28;;
22415;SDS011;12204;50.600;4.608;2022-08-19T07:55:46;5.60;;;3.30;;
22415;SDS011;12204;50.600;4.608;2022-08-19T08:00:51;5.32;;;3.00;;
22415;SDS011;12204;50.600;4.608;2022-08-19T08:05:56;5.60;;;3.13;;
22415;SDS011;12204;50.600;4.608;2022-08-19T08:11:18;5.97;;;3.13;;
22415;SDS011;12204;50.600;4.608;2022-08-19T08:16:24;6.22;;;3.20;;
22415;SDS011;12204;50.600;4.608;2022-08-19T08:21:33;5.38;;;3.00;;
22415;SDS011;12204;50.600;4.608;2022-08-19T08:26:38;4.78;;;2.90;;
22415;SDS011;12204;50.600;4.608;2022-08-19T08:31:52;5.30;;;2.78;;
22415;SDS011;12204;50.600;4.608;2022-08-19T08:37:02;4.60;;;2.80;;
22415;SDS011;12204;50.600;4.608;2022-08-19T08:42:07;5.03;;;2.70;;
22415;SDS011;12204;50.600;4.608;2022-08-19T08:47:20;4.85;;;2.50;;
22415;SDS011;12204;50.600;4.608;2022-08-19T08:52:28;5.60;;;2.80;;
22415;SDS011;12204;50.600;4.608;2022-08-19T08:57:38;5.25;;;2.50;;
22415;SDS011;12204;50.600;4.608;2022-08-19T09:02:56;5.43;;;2.53;;
22415;SDS011;12204;50.600;4.608;2022-08-19T09:08:07;3.95;;;2.28;;
22415;SDS011;12204;50.600;4.608;2022-08-19T09:13:21;4.30;;;2.22;;
22415;SDS011;12204;50.600;4.608;2022-08-19T09:18:39;4.22;;;2.15;;
22415;SDS011;12204;50.600;4.608;2022-08-19T09:23:48;4.07;;;2.22;;
22415;SDS011;12204;50.600;4.608;2022-08-19T09:28:52;3.85;;;2.20;;
22415;SDS011;12204;50.600;4.608;2022-08-19T09:33:58;6.07;;;2.30;;
22415;SDS011;12204;50.600;4.608;2022-08-19T09:39:07;4.65;;;2.08;;
22415;SDS011;12204;50.600;4.608;2022-08-19T09:44:17;3.90;;;2.13;;
22415;SDS011;12204;50.600;4.608;2022-08-19T09:49:22;5.93;;;2.67;;
22415;SDS011;12204;50.600;4.608;2022-08-19T09:54:27;5.32;;;2.80;;
22415;SDS011;12204;50.600;4.608;2022-08-19T09:59:31;6.22;;;2.90;;
22415;SDS011;12204;50.600;4.608;2022-08-19T10:04:35;6.10;;;2.80;;
22415;SDS011;12204;50.600;4.608;2022-08-19T10:09:58;4.70;;;2.70;;
22415;SDS011;12204;50.600;4.608;2022-08-19T10:15:02;5.90;;;2.80;;
22415;SDS011;12204;50.600;4.608;2022-08-19T10:20:08;6.27;;;2.63;;
22415;SDS011;12204;50.600;4.608;2022-08-19T10:25:14;4.25;;;2.45;;
22415;SDS011;12204;50.600;4.608;2022-08-19T10:30:19;5.07;;;3.00;;
22415;SDS011;12204;50.600;4.608;2022-08-19T10:35:25;6.23;;;3.30;;
22415;SDS011;12204;50.600;4.608;2022-08-19T10:40:44;5.78;;;3.30;;
22415;SDS011;12204;50.600;4.608;2022-08-19T10:45:51;6.60;;;3.88;;
22415;SDS011;12204;50.600;4.608;2022-08-19T10:50:58;6.35;;;3.20;;
22415;SDS011;12204;50.600;4.608;2022-08-19T10:56:24;7.68;;;3.53;;
22415;SDS011;12204;50.600;4.608;2022-08-19T11:01:47;6.50;;;3.30;;
22415;SDS011;12204;50.600;4.608;2022-08-19T11:06:56;5.20;;;3.03;;
22415;SDS011;12204;50.600;4.608;2022-08-19T11:12:01;5.65;;;2.80;;
22415;SDS011;12204;50.600;4.608;2022-08-19T11:17:06;5.63;;;3.37;;
22415;SDS011;12204;50.600;4.608;2022-08-19T11:22:10;5.43;;;3.17;;
22415;SDS011;12204;50.600;4.608;2022-08-19T11:27:21;5.07;;;3.00;;
22415;SDS011;12204;50.600;4.608;2022-08-19T11:32:25;4.88;;;2.80;;
22415;SDS011;12204;50.600;4.608;2022-08-19T11:37:29;5.75;;;3.05;;
22415;SDS011;12204;50.600;4.608;2022-08-19T11:42:39;5.25;;;3.08;;
22415;SDS011;12204;50.600;4.608;2022-08-19T11:47:58;5.50;;;2.97;;
22415;SDS011;12204;50.600;4.608;2022-08-19T11:53:03;6.07;;;2.75;;
22415;SDS011;12204;50.600;4.608;2022-08-19T11:58:11;5.05;;;2.78;;
22415;SDS011;12204;50.600;4.608;2022-08-19T12:03:19;4.80;;;2.83;;
22415;SDS011;12204;50.600;4.608;2022-08-19T12:08:24;5.00;;;2.97;;
22415;SDS011;12204;50.600;4.608;2022-08-19T12:13:29;5.47;;;3.22;;
22415;SDS011;12204;50.600;4.608;2022-08-19T12:18:33;5.47;;;3.25;;
22415;SDS011;12204;50.600;4.608;2022-08-19T12:23:37;5.13;;;2.97;;
22415;SDS011;12204;50.600;4.608;2022-08-19T12:28:42;5.00;;;2.88;;
22415;SDS011;12204;50.600;4.608;2022-08-19T12:33:47;5.43;;;3.17;;
22415;SDS011;12204;50.600;4.608;2022-08-19T12:38:51;5.18;;;2.97;;
22415;SDS011;12204;50.600;4.608;2022-08-19T12:43:56;4.95;;;3.00;;
22415;SDS011;12204;50.600;4.608;2022-08-19T12:49:01;5.57;;;2.60;;
22415;SDS011;12204;50.600;4.608;2022-08-19T12:54:25;5.30;;;2.75;;
22415;SDS011;12204;50.600;4.608;2022-08-19T12:59:30;4.50;;;2.70;;
22415;SDS011;12204;50.600;4.608;2022-08-19T13:04:35;4.55;;;2.67;;
22415;SDS011;12204;50.600;4.608;2022-08-19T13:09:42;4.97;;;2.40;;
22415;SDS011;12204;50.600;4.608;2022-08-19T13:14:47;4.75;;;2.80;;
22415;SDS011;12204;50.600;4.608;2022-08-19T13:19:52;5.07;;;2.87;;
22415;SDS011;12204;50.600;4.608;2022-08-19T13:24:56;5.03;;;2.65;;
22415;SDS011;12204;50.600;4.608;2022-08-19T13:30:02;5.00;;;2.70;;
22415;SDS011;12204;50.600;4.608;2022-08-19T13:35:39;5.00;;;2.80;;
22415;SDS011;12204;50.600;4.608;2022-08-19T13:40:49;4.10;;;2.40;;
22415;SDS011;12204;50.600;4.608;2022-08-19T13:45:58;4.68;;;2.47;;
22415;SDS011;12204;50.600;4.608;2022-08-19T13:51:04;5.28;;;2.42;;
22415;SDS011;12204;50.600;4.608;2022-08-19T13:56:12;4.63;;;2.30;;
22415;SDS011;12204;50.600;4.608;2022-08-19T14:01:27;5.35;;;2.45;;
22415;SDS011;12204;50.600;4.608;2022-08-19T14:06:31;4.00;;;2.05;;
22415;SDS011;12204;50.600;4.608;2022-08-19T14:11:35;3.83;;;2.10;;
22415;SDS011;12204;50.600;4.608;2022-08-19T14:16:41;3.58;;;1.90;;
22415;SDS011;12204;50.600;4.608;2022-08-19T14:21:44;3.47;;;1.95;;
22415;SDS011;12204;50.600;4.608;2022-08-19T14:26:48;3.83;;;2.00;;
22415;SDS011;12204;50.600;4.608;2022-08-19T14:31:53;3.30;;;1.80;;
22415;SDS011;12204;50.600;4.608;2022-08-19T14:37:00;3.47;;;1.80;;
22415;SDS011;12204;50.600;4.608;2022-08-19T14:42:06;3.25;;;1.50;;
22415;SDS011;12204;50.600;4.608;2022-08-19T14:47:13;2.83;;;1.50;;
22415;SDS011;12204;50.600;4.608;2022-08-19T14:52:17;2.65;;;1.40;;
22415;SDS011;12204;50.600;4.608;2022-08-19T14:57:21;4.00;;;1.80;;
22415;SDS011;12204;50.600;4.608;2022-08-19T15:02:26;3.70;;;1.50;;
22415;SDS011;12204;50.600;4.608;2022-08-19T15:07:35;2.88;;;1.30;;
22415;SDS011;12204;50.600;4.608;2022-08-19T15:12:40;3.55;;;1.50;;
22415;SDS011;12204;50.600;4.608;2022-08-19T15:17:51;3.25;;;1.50;;
22415;SDS011;12204;50.600;4.608;2022-08-19T15:22:55;2.70;;;1.58;;
22415;SDS011;12204;50.600;4.608;2022-08-19T15:27:59;2.50;;;1.50;;
22415;SDS011;12204;50.600;4.608;2022-08-19T15:33:06;2.88;;;1.42;;
22415;SDS011;12204;50.600;4.608;2022-08-19T15:38:10;4.57;;;1.50;;
22415;SDS011;12204;50.600;4.608;2022-08-19T15:43:15;2.50;;;1.50;;
22415;SDS011;12204;50.600;4.608;2022-08-19T15:48:24;3.13;;;1.40;;
22415;SDS011;12204;50.600;4.608;2022-08-19T15:53:27;3.08;;;1.40;;
22415;SDS011;12204;50.600;4.608;2022-08-19T15:58:31;1.88;;;1.20;;
22415;SDS011;12204;50.600;4.608;2022-08-19T16:03:54;2.92;;;1.40;;
22415;SDS011;12204;50.600;4.608;2022-08-19T16:09:19;3.45;;;1.20;;
22415;SDS011;12204;50.600;4.608;2022-08-19T16:14:29;2.35;;;1.17;;
22415;SDS011;12204;50.600;4.608;2022-08-19T16:24:41;2.28;;;1.10;;
22415;SDS011;12204;50.600;4.608;2022-08-19T16:29:45;1.95;;;1.13;;
22415;SDS011;12204;50.600;4.608;2022-08-19T16:34:52;2.03;;;1.10;;
22415;SDS011;12204;50.600;4.608;2022-08-19T16:39:56;3.03;;;1.15;;
22415;SDS011;12204;50.600;4.608;2022-08-19T16:44:59;1.80;;;0.90;;
22415;SDS011;12204;50.600;4.608;2022-08-19T16:50:06;1.90;;;1.00;;
22415;SDS011;12204;50.600;4.608;2022-08-19T16:55:11;1.67;;;1.10;;
22415;SDS011;12204;50.600;4.608;2022-08-19T17:00:15;2.30;;;0.98;;
22415;SDS011;12204;50.600;4.608;2022-08-19T17:05:22;1.48;;;0.90;;
22415;SDS011;12204;50.600;4.608;2022-08-19T17:10:26;1.38;;;0.90;;
22415;SDS011;12204;50.600;4.608;2022-08-19T17:15:29;1.85;;;0.85;;
22415;SDS011;12204;50.600;4.608;2022-08-19T17:20:35;2.10;;;0.80;;
22415;SDS011;12204;50.600;4.608;2022-08-19T17:25:40;1.70;;;0.80;;
22415;SDS011;12204;50.600;4.608;2022-08-19T17:30:44;1.70;;;0.90;;
22415;SDS011;12204;50.600;4.608;2022-08-19T17:35:49;2.22;;;1.00;;
22415;SDS011;12204;50.600;4.608;2022-08-19T17:40:53;2.10;;;0.90;;
22415;SDS011;12204;50.600;4.608;2022-08-19T17:46:05;1.25;;;0.80;;
22415;SDS011;12204;50.600;4.608;2022-08-19T17:51:13;1.37;;;0.90;;
22415;SDS011;12204;50.600;4.608;2022-08-19T17:56:22;2.33;;;1.00;;
22415;SDS011;12204;50.600;4.608;2022-08-19T18:01:29;1.65;;;0.75;;
22415;SDS011;12204;50.600;4.608;2022-08-19T18:06:54;1.23;;;0.80;;
22415;SDS011;12204;50.600;4.608;2022-08-19T18:11:58;2.00;;;0.80;;
22415;SDS011;12204;50.600;4.608;2022-08-19T18:17:04;1.25;;;0.70;;
22415;SDS011;12204;50.600;4.608;2022-08-19T18:22:21;1.23;;;0.88;;
22415;SDS011;12204;50.600;4.608;2022-08-19T18:27:29;1.70;;;0.80;;
22415;SDS011;12204;50.600;4.608;2022-08-19T18:32:33;2.75;;;0.90;;
22415;SDS011;12204;50.600;4.608;2022-08-19T18:37:41;1.93;;;0.90;;
22415;SDS011;12204;50.600;4.608;2022-08-19T18:42:47;1.42;;;0.85;;
22415;SDS011;12204;50.600;4.608;2022-08-19T18:48:08;2.25;;;0.85;;
22415;SDS011;12204;50.600;4.608;2022-08-19T18:53:32;2.55;;;0.82;;
22415;SDS011;12204;50.600;4.608;2022-08-19T18:58:40;1.23;;;0.80;;
22415;SDS011;12204;50.600;4.608;2022-08-19T19:03:45;1.58;;;0.75;;
22415;SDS011;12204;50.600;4.608;2022-08-19T19:08:55;1.92;;;0.90;;
22415;SDS011;12204;50.600;4.608;2022-08-19T19:14:01;0.90;;;0.70;;
22415;SDS011;12204;50.600;4.608;2022-08-19T19:19:23;1.40;;;0.70;;
22415;SDS011;12204;50.600;4.608;2022-08-19T19:24:30;1.67;;;0.75;;
22415;SDS011;12204;50.600;4.608;2022-08-19T19:29:38;2.08;;;0.73;;
22415;SDS011;12204;50.600;4.608;2022-08-19T19:34:43;1.55;;;0.70;;
22415;SDS011;12204;50.600;4.608;2022-08-19T19:39:49;2.42;;;0.90;;
22415;SDS011;12204;50.600;4.608;2022-08-19T19:44:54;1.48;;;0.80;;
22415;SDS011;12204;50.600;4.608;2022-08-19T19:49:59;1.25;;;0.77;;
22415;SDS011;12204;50.600;4.608;2022-08-19T19:55:19;2.13;;;0.70;;
22415;SDS011;12204;50.600;4.608;2022-08-19T20:00:26;2.20;;;0.73;;
22415;SDS011;12204;50.600;4.608;2022-08-19T20:05:30;1.63;;;0.80;;
22415;SDS011;12204;50.600;4.608;2022-08-19T20:10:36;2.40;;;0.82;;
22415;SDS011;12204;50.600;4.608;2022-08-19T20:15:41;2.83;;;0.93;;
22415;SDS011;12204;50.600;4.608;2022-08-19T20:20:45;1.63;;;0.80;;
22415;SDS011;12204;50.600;4.608;2022-08-19T20:25:51;1.85;;;0.85;;
22415;SDS011;12204;50.600;4.608;2022-08-19T20:30:56;2.03;;;0.80;;
22415;SDS011;12204;50.600;4.608;2022-08-19T20:36:01;1.30;;;0.70;;
22415;SDS011;12204;50.600;4.608;2022-08-19T20:41:07;2.25;;;0.73;;
22415;SDS011;12204;50.600;4.608;2022-08-19T20:46:11;1.70;;;0.70;;
22415;SDS011;12204;50.600;4.608;2022-08-19T20:51:15;2.08;;;0.80;;
22415;SDS011;12204;50.600;4.608;2022-08-19T20:56:21;1.77;;;0.75;;
22415;SDS011;12204;50.600;4.608;2022-08-19T21:01:24;1.13;;;0.60;;
22415;SDS011;12204;50.600;4.608;2022-08-19T21:06:28;1.95;;;0.80;;
22415;SDS011;12204;50.600;4.608;2022-08-19T21:11:34;2.08;;;0.73;;
22415;SDS011;12204;50.600;4.608;2022-08-19T21:16:38;1.23;;;0.77;;
22415;SDS011;12204;50.600;4.608;2022-08-19T21:21:42;1.45;;;0.75;;
22415;SDS011;12204;50.600;4.608;2022-08-19T21:26:47;1.70;;;0.70;;
22415;SDS011;12204;50.600;4.608;2022-08-19T21:31:52;2.23;;;0.70;;
22415;SDS011;12204;50.600;4.608;2022-08-19T21:36:55;1.40;;;0.60;;
22415;SDS011;12204;50.600;4.608;2022-08-19T21:42:00;1.42;;;0.73;;
22415;SDS011;12204;50.600;4.608;2022-08-19T21:47:04;1.13;;;0.63;;
22415;SDS011;12204;50.600;4.608;2022-08-19T21:52:11;1.33;;;0.73;;
22415;SDS011;12204;50.600;4.608;2022-08-19T21:57:16;1.75;;;0.68;;
22415;SDS011;12204;50.600;4.608;2022-08-19T22:02:20;1.30;;;0.60;;
22415;SDS011;12204;50.600;4.608;2022-08-19T22:07:25;1.30;;;0.70;;
22415;SDS011;12204;50.600;4.608;2022-08-19T22:12:31;2.13;;;0.70;;
22415;SDS011;12204;50.600;4.608;2022-08-19T22:17:47;2.13;;;0.80;;
22415;SDS011;12204;50.600;4.608;2022-08-19T22:22:53;1.70;;;0.80;;
22415;SDS011;12204;50.600;4.608;2022-08-19T22:28:03;2.42;;;0.70;;
22415;SDS011;12204;50.600;4.608;2022-08-19T22:33:14;2.10;;;0.90;;
22415;SDS011;12204;50.600;4.608;2022-08-19T22:38:21;2.03;;;0.80;;
22415;SDS011;12204;50.600;4.608;2022-08-19T22:43:27;2.03;;;0.80;;
22415;SDS011;12204;50.600;4.608;2022-08-19T22:48:34;1.95;;;0.80;;
22415;SDS011;12204;50.600;4.608;2022-08-19T22:53:38;1.00;;;0.70;;
22415;SDS011;12204;50.600;4.608;2022-08-19T22:58:48;1.10;;;0.70;;
22415;SDS011;12204;50.600;4.608;2022-08-19T23:03:52;2.47;;;0.90;;
22415;SDS011;12204;50.600;4.608;2022-08-19T23:08:56;1.85;;;0.80;;
22415;SDS011;12204;50.600;4.608;2022-08-19T23:14:02;1.95;;;0.77;;
22415;SDS011;12204;50.600;4.608;2022-08-19T23:19:09;2.08;;;0.80;;
22415;SDS011;12204;50.600;4.608;2022-08-19T23:24:13;1.98;;;0.70;;
22415;SDS011;12204;50.600;4.608;2022-08-19T23:29:18;2.03;;;0.80;;
22415;SDS011;12204;50.600;4.608;2022-08-19T23:34:40;1.67;;;0.70;;
22415;SDS011;12204;50.600;4.608;2022-08-19T23:39:43;1.90;;;0.70;;
22415;SDS011;12204;50.600;4.608;2022-08-19T23:44:48;2.40;;;0.70;;
22415;SDS011;12204;50.600;4.608;2022-08-19T23:49:53;2.00;;;0.80;;
22415;SDS011;12204;50.600;4.608;2022-08-19T23:54:58;2.10;;;0.70;;
